sensor_id;sensor_type;location;lat;lon;timestamp;P1;durP1;ratioP1;P2;durP2;ratioP2
16199;SDS011;8207;52.494;4.654;2023-07-13T00:01:50;16.00;;;5.47;;
16199;SDS011;8207;52.494;4.654;2023-07-13T00:04:18;19.33;;;5.88;;
16199;SDS011;8207;52.494;4.654;2023-07-13T00:06:48;20.92;;;5.32;;
16199;SDS011;8207;52.494;4.654;2023-07-13T00:09:15;20.70;;;5.20;;
16199;SDS011;8207;52.494;4.654;2023-07-13T00:11:44;16.67;;;4.55;;
16199;SDS011;8207;52.494;4.654;2023-07-13T00:14:12;15.38;;;4.93;;
16199;SDS011;8207;52.494;4.654;2023-07-13T00:16:41;18.23;;;4.72;;
16199;SDS011;8207;52.494;4.654;2023-07-13T00:19:10;19.55;;;4.90;;
16199;SDS011;8207;52.494;4.654;2023-07-13T00:21:37;11.93;;;4.63;;
16199;SDS011;8207;52.494;4.654;2023-07-13T00:24:05;16.10;;;5.00;;
16199;SDS011;8207;52.494;4.654;2023-07-13T00:26:33;13.40;;;3.20;;
16199;SDS011;8207;52.494;4.654;2023-07-13T00:29:00;18.20;;;4.10;;
16199;SDS011;8207;52.494;4.654;2023-07-13T00:31:27;11.85;;;3.80;;
16199;SDS011;8207;52.494;4.654;2023-07-13T00:33:54;11.82;;;3.60;;
16199;SDS011;8207;52.494;4.654;2023-07-13T00:36:23;7.68;;;2.92;;
16199;SDS011;8207;52.494;4.654;2023-07-13T00:38:51;6.38;;;3.13;;
16199;SDS011;8207;52.494;4.654;2023-07-13T00:41:18;9.98;;;3.15;;
16199;SDS011;8207;52.494;4.654;2023-07-13T00:43:46;6.95;;;2.03;;
16199;SDS011;8207;52.494;4.654;2023-07-13T00:46:19;6.25;;;2.20;;
16199;SDS011;8207;52.494;4.654;2023-07-13T00:48:49;6.25;;;2.30;;
16199;SDS011;8207;52.494;4.654;2023-07-13T00:51:19;8.50;;;2.30;;
16199;SDS011;8207;52.494;4.654;2023-07-13T00:53:52;3.78;;;2.10;;
16199;SDS011;8207;52.494;4.654;2023-07-13T00:56:21;4.50;;;2.00;;
16199;SDS011;8207;52.494;4.654;2023-07-13T00:58:48;3.45;;;1.60;;
16199;SDS011;8207;52.494;4.654;2023-07-13T01:01:16;5.57;;;1.70;;
16199;SDS011;8207;52.494;4.654;2023-07-13T01:03:43;3.97;;;1.92;;
16199;SDS011;8207;52.494;4.654;2023-07-13T01:06:11;5.43;;;1.98;;
16199;SDS011;8207;52.494;4.654;2023-07-13T01:08:40;5.55;;;2.20;;
16199;SDS011;8207;52.494;4.654;2023-07-13T01:11:07;9.27;;;2.17;;
16199;SDS011;8207;52.494;4.654;2023-07-13T01:13:34;5.28;;;1.67;;
16199;SDS011;8207;52.494;4.654;2023-07-13T01:16:02;4.50;;;1.65;;
16199;SDS011;8207;52.494;4.654;2023-07-13T01:18:38;5.25;;;1.85;;
16199;SDS011;8207;52.494;4.654;2023-07-13T01:21:07;3.40;;;1.83;;
16199;SDS011;8207;52.494;4.654;2023-07-13T01:23:34;8.45;;;2.00;;
16199;SDS011;8207;52.494;4.654;2023-07-13T01:26:01;4.07;;;2.03;;
16199;SDS011;8207;52.494;4.654;2023-07-13T01:28:28;7.82;;;1.95;;
16199;SDS011;8207;52.494;4.654;2023-07-13T01:30:56;9.38;;;2.10;;
16199;SDS011;8207;52.494;4.654;2023-07-13T01:33:24;6.63;;;2.00;;
16199;SDS011;8207;52.494;4.654;2023-07-13T01:35:52;6.50;;;2.63;;
16199;SDS011;8207;52.494;4.654;2023-07-13T01:38:21;6.63;;;2.22;;
16199;SDS011;8207;52.494;4.654;2023-07-13T01:40:49;8.75;;;2.50;;
16199;SDS011;8207;52.494;4.654;2023-07-13T01:43:17;8.10;;;2.88;;
16199;SDS011;8207;52.494;4.654;2023-07-13T01:45:44;5.65;;;2.25;;
16199;SDS011;8207;52.494;4.654;2023-07-13T01:48:12;3.17;;;1.80;;
16199;SDS011;8207;52.494;4.654;2023-07-13T01:50:39;6.38;;;2.45;;
16199;SDS011;8207;52.494;4.654;2023-07-13T01:53:06;5.90;;;2.45;;
16199;SDS011;8207;52.494;4.654;2023-07-13T01:55:35;11.07;;;2.58;;
16199;SDS011;8207;52.494;4.654;2023-07-13T01:58:03;6.50;;;2.40;;
16199;SDS011;8207;52.494;4.654;2023-07-13T02:00:31;10.45;;;2.72;;
16199;SDS011;8207;52.494;4.654;2023-07-13T02:02:59;8.88;;;2.30;;
16199;SDS011;8207;52.494;4.654;2023-07-13T02:05:26;7.43;;;1.77;;
16199;SDS011;8207;52.494;4.654;2023-07-13T02:07:53;6.30;;;2.13;;
16199;SDS011;8207;52.494;4.654;2023-07-13T02:10:20;6.72;;;2.55;;
16199;SDS011;8207;52.494;4.654;2023-07-13T02:12:49;9.35;;;2.47;;
16199;SDS011;8207;52.494;4.654;2023-07-13T02:15:17;9.52;;;2.45;;
16199;SDS011;8207;52.494;4.654;2023-07-13T02:17:44;7.88;;;3.15;;
16199;SDS011;8207;52.494;4.654;2023-07-13T02:20:11;6.22;;;2.30;;
16199;SDS011;8207;52.494;4.654;2023-07-13T02:22:38;10.23;;;2.40;;
16199;SDS011;8207;52.494;4.654;2023-07-13T02:25:06;7.47;;;2.53;;
16199;SDS011;8207;52.494;4.654;2023-07-13T02:27:34;8.32;;;2.30;;
16199;SDS011;8207;52.494;4.654;2023-07-13T02:30:02;8.43;;;2.60;;
16199;SDS011;8207;52.494;4.654;2023-07-13T02:32:30;8.63;;;2.92;;
16199;SDS011;8207;52.494;4.654;2023-07-13T02:34:57;7.07;;;2.00;;
16199;SDS011;8207;52.494;4.654;2023-07-13T02:37:24;6.53;;;2.38;;
16199;SDS011;8207;52.494;4.654;2023-07-13T02:39:51;7.35;;;2.42;;
16199;SDS011;8207;52.494;4.654;2023-07-13T02:42:19;9.23;;;2.50;;
16199;SDS011;8207;52.494;4.654;2023-07-13T02:44:46;4.97;;;2.25;;
16199;SDS011;8207;52.494;4.654;2023-07-13T02:47:16;10.63;;;2.83;;
16199;SDS011;8207;52.494;4.654;2023-07-13T02:49:43;9.32;;;3.03;;
16199;SDS011;8207;52.494;4.654;2023-07-13T02:52:10;9.70;;;2.53;;
16199;SDS011;8207;52.494;4.654;2023-07-13T02:54:37;5.50;;;2.38;;
16199;SDS011;8207;52.494;4.654;2023-07-13T02:57:05;5.38;;;2.50;;
16199;SDS011;8207;52.494;4.654;2023-07-13T02:59:32;7.32;;;2.90;;
16199;SDS011;8207;52.494;4.654;2023-07-13T03:02:00;8.90;;;2.70;;
16199;SDS011;8207;52.494;4.654;2023-07-13T03:04:28;14.48;;;3.85;;
16199;SDS011;8207;52.494;4.654;2023-07-13T03:06:56;6.55;;;2.35;;
16199;SDS011;8207;52.494;4.654;2023-07-13T03:09:23;7.25;;;2.50;;
16199;SDS011;8207;52.494;4.654;2023-07-13T03:11:52;8.10;;;2.60;;
16199;SDS011;8207;52.494;4.654;2023-07-13T03:14:20;7.50;;;2.53;;
16199;SDS011;8207;52.494;4.654;2023-07-13T03:16:48;11.43;;;3.13;;
16199;SDS011;8207;52.494;4.654;2023-07-13T03:19:17;10.57;;;2.67;;
16199;SDS011;8207;52.494;4.654;2023-07-13T03:21:45;11.98;;;3.35;;
16199;SDS011;8207;52.494;4.654;2023-07-13T03:24:12;12.82;;;3.30;;
16199;SDS011;8207;52.494;4.654;2023-07-13T03:26:40;10.65;;;2.85;;
16199;SDS011;8207;52.494;4.654;2023-07-13T03:29:07;8.35;;;2.90;;
16199;SDS011;8207;52.494;4.654;2023-07-13T03:31:35;8.38;;;2.80;;
16199;SDS011;8207;52.494;4.654;2023-07-13T03:34:02;11.68;;;2.95;;
16199;SDS011;8207;52.494;4.654;2023-07-13T03:36:30;9.70;;;3.05;;
16199;SDS011;8207;52.494;4.654;2023-07-13T03:39:00;9.82;;;3.63;;
16199;SDS011;8207;52.494;4.654;2023-07-13T03:41:29;7.18;;;3.13;;
16199;SDS011;8207;52.494;4.654;2023-07-13T03:43:56;10.95;;;3.42;;
16199;SDS011;8207;52.494;4.654;2023-07-13T03:46:24;8.90;;;3.15;;
16199;SDS011;8207;52.494;4.654;2023-07-13T03:48:51;11.48;;;2.97;;
16199;SDS011;8207;52.494;4.654;2023-07-13T03:51:18;10.07;;;3.15;;
16199;SDS011;8207;52.494;4.654;2023-07-13T03:53:46;6.60;;;2.90;;
16199;SDS011;8207;52.494;4.654;2023-07-13T03:56:17;9.00;;;3.17;;
16199;SDS011;8207;52.494;4.654;2023-07-13T03:58:45;12.57;;;3.47;;
16199;SDS011;8207;52.494;4.654;2023-07-13T04:01:13;9.30;;;3.20;;
16199;SDS011;8207;52.494;4.654;2023-07-13T04:03:42;11.50;;;3.33;;
16199;SDS011;8207;52.494;4.654;2023-07-13T04:06:13;8.40;;;2.92;;
16199;SDS011;8207;52.494;4.654;2023-07-13T04:08:46;9.13;;;2.40;;
16199;SDS011;8207;52.494;4.654;2023-07-13T04:11:16;9.90;;;2.97;;
16199;SDS011;8207;52.494;4.654;2023-07-13T04:13:44;11.35;;;2.97;;
16199;SDS011;8207;52.494;4.654;2023-07-13T04:16:11;15.68;;;3.33;;
16199;SDS011;8207;52.494;4.654;2023-07-13T04:18:38;10.18;;;3.20;;
16199;SDS011;8207;52.494;4.654;2023-07-13T04:21:06;8.20;;;2.83;;
16199;SDS011;8207;52.494;4.654;2023-07-13T04:23:34;9.85;;;3.17;;
16199;SDS011;8207;52.494;4.654;2023-07-13T04:26:02;14.30;;;3.75;;
16199;SDS011;8207;52.494;4.654;2023-07-13T04:28:31;8.55;;;2.92;;
16199;SDS011;8207;52.494;4.654;2023-07-13T04:30:58;7.25;;;2.50;;
16199;SDS011;8207;52.494;4.654;2023-07-13T04:33:25;9.68;;;2.90;;
16199;SDS011;8207;52.494;4.654;2023-07-13T04:35:54;8.57;;;2.83;;
16199;SDS011;8207;52.494;4.654;2023-07-13T04:38:22;9.13;;;3.15;;
16199;SDS011;8207;52.494;4.654;2023-07-13T04:40:52;12.13;;;3.30;;
16199;SDS011;8207;52.494;4.654;2023-07-13T04:43:21;8.25;;;3.13;;
16199;SDS011;8207;52.494;4.654;2023-07-13T04:45:49;15.82;;;3.55;;
16199;SDS011;8207;52.494;4.654;2023-07-13T04:48:16;16.30;;;3.35;;
16199;SDS011;8207;52.494;4.654;2023-07-13T04:50:44;9.80;;;2.92;;
16199;SDS011;8207;52.494;4.654;2023-07-13T04:53:12;10.38;;;2.95;;
16199;SDS011;8207;52.494;4.654;2023-07-13T04:55:39;9.23;;;3.30;;
16199;SDS011;8207;52.494;4.654;2023-07-13T04:58:06;8.68;;;2.83;;
16199;SDS011;8207;52.494;4.654;2023-07-13T05:00:33;8.90;;;3.03;;
16199;SDS011;8207;52.494;4.654;2023-07-13T05:03:02;8.07;;;3.08;;
16199;SDS011;8207;52.494;4.654;2023-07-13T05:05:29;7.45;;;2.75;;
16199;SDS011;8207;52.494;4.654;2023-07-13T05:07:57;8.82;;;2.65;;
16199;SDS011;8207;52.494;4.654;2023-07-13T05:10:24;10.63;;;3.55;;
16199;SDS011;8207;52.494;4.654;2023-07-13T05:12:51;7.32;;;2.72;;
16199;SDS011;8207;52.494;4.654;2023-07-13T05:15:20;10.30;;;3.45;;
16199;SDS011;8207;52.494;4.654;2023-07-13T05:17:48;12.00;;;2.90;;
16199;SDS011;8207;52.494;4.654;2023-07-13T05:20:17;11.77;;;3.58;;
16199;SDS011;8207;52.494;4.654;2023-07-13T05:22:45;5.22;;;2.70;;
16199;SDS011;8207;52.494;4.654;2023-07-13T05:25:13;12.10;;;3.70;;
16199;SDS011;8207;52.494;4.654;2023-07-13T05:27:41;11.18;;;3.60;;
16199;SDS011;8207;52.494;4.654;2023-07-13T05:30:11;4.78;;;2.65;;
16199;SDS011;8207;52.494;4.654;2023-07-13T05:32:38;7.90;;;2.67;;
16199;SDS011;8207;52.494;4.654;2023-07-13T05:35:05;6.63;;;3.20;;
16199;SDS011;8207;52.494;4.654;2023-07-13T05:37:34;6.90;;;3.00;;
16199;SDS011;8207;52.494;4.654;2023-07-13T05:40:01;6.80;;;2.97;;
16199;SDS011;8207;52.494;4.654;2023-07-13T05:42:29;8.23;;;2.88;;
16199;SDS011;8207;52.494;4.654;2023-07-13T05:44:57;10.48;;;2.80;;
16199;SDS011;8207;52.494;4.654;2023-07-13T05:47:24;8.48;;;2.67;;
16199;SDS011;8207;52.494;4.654;2023-07-13T05:49:51;7.78;;;2.78;;
16199;SDS011;8207;52.494;4.654;2023-07-13T05:52:18;9.52;;;3.05;;
16199;SDS011;8207;52.494;4.654;2023-07-13T05:54:46;7.00;;;3.10;;
16199;SDS011;8207;52.494;4.654;2023-07-13T05:57:14;8.32;;;3.20;;
16199;SDS011;8207;52.494;4.654;2023-07-13T05:59:41;7.25;;;3.13;;
16199;SDS011;8207;52.494;4.654;2023-07-13T06:02:08;7.15;;;2.63;;
16199;SDS011;8207;52.494;4.654;2023-07-13T06:04:36;10.52;;;3.08;;
16199;SDS011;8207;52.494;4.654;2023-07-13T06:07:03;5.82;;;2.47;;
16199;SDS011;8207;52.494;4.654;2023-07-13T06:09:30;7.95;;;2.80;;
16199;SDS011;8207;52.494;4.654;2023-07-13T06:11:59;9.95;;;2.67;;
16199;SDS011;8207;52.494;4.654;2023-07-13T06:14:26;8.57;;;2.60;;
16199;SDS011;8207;52.494;4.654;2023-07-13T06:16:53;7.95;;;2.50;;
16199;SDS011;8207;52.494;4.654;2023-07-13T06:19:20;5.03;;;2.65;;
16199;SDS011;8207;52.494;4.654;2023-07-13T06:21:47;6.22;;;2.13;;
16199;SDS011;8207;52.494;4.654;2023-07-13T06:24:14;6.03;;;2.22;;
16199;SDS011;8207;52.494;4.654;2023-07-13T06:26:41;5.25;;;2.22;;
16199;SDS011;8207;52.494;4.654;2023-07-13T06:29:10;7.10;;;2.30;;
16199;SDS011;8207;52.494;4.654;2023-07-13T06:31:37;9.07;;;2.42;;
16199;SDS011;8207;52.494;4.654;2023-07-13T06:34:04;6.40;;;2.17;;
16199;SDS011;8207;52.494;4.654;2023-07-13T06:36:31;9.10;;;3.00;;
16199;SDS011;8207;52.494;4.654;2023-07-13T06:38:58;8.07;;;2.72;;
16199;SDS011;8207;52.494;4.654;2023-07-13T06:41:25;5.22;;;2.85;;
16199;SDS011;8207;52.494;4.654;2023-07-13T06:43:52;9.52;;;3.10;;
16199;SDS011;8207;52.494;4.654;2023-07-13T06:46:21;7.05;;;2.70;;
16199;SDS011;8207;52.494;4.654;2023-07-13T06:48:48;8.55;;;2.78;;
16199;SDS011;8207;52.494;4.654;2023-07-13T06:51:16;6.97;;;3.03;;
16199;SDS011;8207;52.494;4.654;2023-07-13T06:53:43;9.77;;;3.17;;
16199;SDS011;8207;52.494;4.654;2023-07-13T06:56:10;6.90;;;3.08;;
16199;SDS011;8207;52.494;4.654;2023-07-13T06:58:37;8.85;;;3.40;;
16199;SDS011;8207;52.494;4.654;2023-07-13T07:01:05;7.95;;;3.40;;
16199;SDS011;8207;52.494;4.654;2023-07-13T07:03:33;8.57;;;3.05;;
16199;SDS011;8207;52.494;4.654;2023-07-13T07:06:01;3.53;;;2.25;;
16199;SDS011;8207;52.494;4.654;2023-07-13T07:08:28;9.50;;;3.33;;
16199;SDS011;8207;52.494;4.654;2023-07-13T07:10:55;9.45;;;3.20;;
16199;SDS011;8207;52.494;4.654;2023-07-13T07:13:23;7.05;;;3.10;;
16199;SDS011;8207;52.494;4.654;2023-07-13T07:15:50;8.25;;;2.47;;
16199;SDS011;8207;52.494;4.654;2023-07-13T07:18:17;6.93;;;2.72;;
16199;SDS011;8207;52.494;4.654;2023-07-13T07:20:46;10.18;;;3.40;;
16199;SDS011;8207;52.494;4.654;2023-07-13T07:23:14;7.75;;;3.35;;
16199;SDS011;8207;52.494;4.654;2023-07-13T07:25:42;4.63;;;2.40;;
16199;SDS011;8207;52.494;4.654;2023-07-13T07:28:11;6.93;;;3.40;;
16199;SDS011;8207;52.494;4.654;2023-07-13T07:30:41;6.65;;;3.03;;
16199;SDS011;8207;52.494;4.654;2023-07-13T07:33:08;6.85;;;2.55;;
16199;SDS011;8207;52.494;4.654;2023-07-13T07:35:35;6.05;;;2.85;;
16199;SDS011;8207;52.494;4.654;2023-07-13T07:38:04;6.82;;;2.53;;
16199;SDS011;8207;52.494;4.654;2023-07-13T07:40:31;9.52;;;2.90;;
16199;SDS011;8207;52.494;4.654;2023-07-13T07:42:58;8.25;;;3.08;;
16199;SDS011;8207;52.494;4.654;2023-07-13T07:45:26;8.85;;;2.53;;
16199;SDS011;8207;52.494;4.654;2023-07-13T07:47:53;5.95;;;2.42;;
16199;SDS011;8207;52.494;4.654;2023-07-13T07:50:23;5.38;;;2.60;;
16199;SDS011;8207;52.494;4.654;2023-07-13T07:52:51;7.97;;;2.60;;
16199;SDS011;8207;52.494;4.654;2023-07-13T07:55:19;7.70;;;2.63;;
16199;SDS011;8207;52.494;4.654;2023-07-13T07:57:46;5.82;;;2.55;;
16199;SDS011;8207;52.494;4.654;2023-07-13T08:00:14;5.90;;;1.98;;
16199;SDS011;8207;52.494;4.654;2023-07-13T08:02:42;5.10;;;2.22;;
16199;SDS011;8207;52.494;4.654;2023-07-13T08:05:10;4.18;;;2.10;;
16199;SDS011;8207;52.494;4.654;2023-07-13T08:07:38;6.47;;;2.78;;
16199;SDS011;8207;52.494;4.654;2023-07-13T08:10:06;5.80;;;2.03;;
16199;SDS011;8207;52.494;4.654;2023-07-13T08:12:36;5.50;;;2.35;;
16199;SDS011;8207;52.494;4.654;2023-07-13T08:15:04;3.83;;;2.10;;
16199;SDS011;8207;52.494;4.654;2023-07-13T08:17:32;5.20;;;2.22;;
16199;SDS011;8207;52.494;4.654;2023-07-13T08:20:00;8.75;;;2.30;;
16199;SDS011;8207;52.494;4.654;2023-07-13T08:22:27;6.05;;;2.35;;
16199;SDS011;8207;52.494;4.654;2023-07-13T08:24:54;7.82;;;2.30;;
16199;SDS011;8207;52.494;4.654;2023-07-13T08:27:22;5.05;;;2.33;;
16199;SDS011;8207;52.494;4.654;2023-07-13T08:29:52;9.88;;;3.03;;
16199;SDS011;8207;52.494;4.654;2023-07-13T08:32:20;9.00;;;2.38;;
16199;SDS011;8207;52.494;4.654;2023-07-13T08:34:49;6.20;;;2.17;;
16199;SDS011;8207;52.494;4.654;2023-07-13T08:37:16;4.82;;;2.03;;
16199;SDS011;8207;52.494;4.654;2023-07-13T08:39:45;6.07;;;2.25;;
16199;SDS011;8207;52.494;4.654;2023-07-13T08:42:14;4.32;;;2.00;;
16199;SDS011;8207;52.494;4.654;2023-07-13T08:44:51;8.48;;;2.35;;
16199;SDS011;8207;52.494;4.654;2023-07-13T08:47:27;6.72;;;2.35;;
16199;SDS011;8207;52.494;4.654;2023-07-13T08:49:56;5.65;;;2.00;;
16199;SDS011;8207;52.494;4.654;2023-07-13T08:52:26;5.72;;;2.38;;
16199;SDS011;8207;52.494;4.654;2023-07-13T08:54:58;7.65;;;2.50;;
16199;SDS011;8207;52.494;4.654;2023-07-13T08:57:33;4.75;;;2.03;;
16199;SDS011;8207;52.494;4.654;2023-07-13T09:00:03;7.88;;;2.30;;
16199;SDS011;8207;52.494;4.654;2023-07-13T09:02:34;5.43;;;2.30;;
16199;SDS011;8207;52.494;4.654;2023-07-13T09:05:10;9.00;;;2.50;;
16199;SDS011;8207;52.494;4.654;2023-07-13T09:07:43;7.65;;;2.25;;
16199;SDS011;8207;52.494;4.654;2023-07-13T09:10:29;6.90;;;2.17;;
16199;SDS011;8207;52.494;4.654;2023-07-13T09:13:02;5.47;;;2.00;;
16199;SDS011;8207;52.494;4.654;2023-07-13T09:15:42;8.23;;;2.28;;
16199;SDS011;8207;52.494;4.654;2023-07-13T09:18:11;9.05;;;2.63;;
16199;SDS011;8207;52.494;4.654;2023-07-13T09:20:49;5.57;;;2.08;;
16199;SDS011;8207;52.494;4.654;2023-07-13T09:23:19;5.30;;;2.50;;
16199;SDS011;8207;52.494;4.654;2023-07-13T09:25:48;8.45;;;2.60;;
16199;SDS011;8207;52.494;4.654;2023-07-13T09:28:22;9.10;;;2.70;;
16199;SDS011;8207;52.494;4.654;2023-07-13T09:30:58;10.80;;;2.70;;
16199;SDS011;8207;52.494;4.654;2023-07-13T09:33:32;7.75;;;2.92;;
16199;SDS011;8207;52.494;4.654;2023-07-13T09:36:00;9.68;;;2.65;;
16199;SDS011;8207;52.494;4.654;2023-07-13T09:38:27;8.32;;;2.70;;
16199;SDS011;8207;52.494;4.654;2023-07-13T09:41:10;6.30;;;2.58;;
16199;SDS011;8207;52.494;4.654;2023-07-13T09:46:44;8.43;;;2.60;;
16199;SDS011;8207;52.494;4.654;2023-07-13T09:49:13;5.18;;;2.40;;
16199;SDS011;8207;52.494;4.654;2023-07-13T09:51:41;6.05;;;2.75;;
16199;SDS011;8207;52.494;4.654;2023-07-13T09:54:17;6.28;;;2.65;;
16199;SDS011;8207;52.494;4.654;2023-07-13T09:56:45;7.32;;;2.63;;
16199;SDS011;8207;52.494;4.654;2023-07-13T09:59:18;7.47;;;2.75;;
16199;SDS011;8207;52.494;4.654;2023-07-13T10:01:48;7.47;;;2.55;;
16199;SDS011;8207;52.494;4.654;2023-07-13T10:04:16;4.15;;;2.13;;
16199;SDS011;8207;52.494;4.654;2023-07-13T10:06:44;8.57;;;2.78;;
16199;SDS011;8207;52.494;4.654;2023-07-13T10:09:14;11.65;;;3.28;;
16199;SDS011;8207;52.494;4.654;2023-07-13T10:11:42;6.30;;;2.80;;
16199;SDS011;8207;52.494;4.654;2023-07-13T10:14:10;9.02;;;2.40;;
16199;SDS011;8207;52.494;4.654;2023-07-13T10:16:41;6.38;;;3.42;;
16199;SDS011;8207;52.494;4.654;2023-07-13T10:19:13;5.35;;;2.60;;
16199;SDS011;8207;52.494;4.654;2023-07-13T10:21:49;6.72;;;2.95;;
16199;SDS011;8207;52.494;4.654;2023-07-13T10:24:20;7.82;;;2.70;;
16199;SDS011;8207;52.494;4.654;2023-07-13T10:26:52;7.00;;;2.72;;
16199;SDS011;8207;52.494;4.654;2023-07-13T10:29:24;6.22;;;2.78;;
16199;SDS011;8207;52.494;4.654;2023-07-13T10:31:54;7.70;;;3.10;;
16199;SDS011;8207;52.494;4.654;2023-07-13T10:34:24;8.23;;;2.88;;
16199;SDS011;8207;52.494;4.654;2023-07-13T10:36:51;9.50;;;3.05;;
16199;SDS011;8207;52.494;4.654;2023-07-13T10:39:20;7.30;;;2.90;;
16199;SDS011;8207;52.494;4.654;2023-07-13T10:41:53;6.90;;;2.53;;
16199;SDS011;8207;52.494;4.654;2023-07-13T10:44:23;4.53;;;2.47;;
16199;SDS011;8207;52.494;4.654;2023-07-13T10:46:57;8.57;;;2.70;;
16199;SDS011;8207;52.494;4.654;2023-07-13T10:49:28;7.68;;;2.88;;
16199;SDS011;8207;52.494;4.654;2023-07-13T10:51:57;8.68;;;2.83;;
16199;SDS011;8207;52.494;4.654;2023-07-13T10:54:30;6.50;;;2.35;;
16199;SDS011;8207;52.494;4.654;2023-07-13T10:57:16;6.40;;;2.47;;
16199;SDS011;8207;52.494;4.654;2023-07-13T10:59:48;9.00;;;2.80;;
16199;SDS011;8207;52.494;4.654;2023-07-13T11:02:36;7.50;;;2.75;;
16199;SDS011;8207;52.494;4.654;2023-07-13T11:05:16;5.30;;;2.60;;
16199;SDS011;8207;52.494;4.654;2023-07-13T11:07:54;5.93;;;2.22;;
16199;SDS011;8207;52.494;4.654;2023-07-13T11:10:46;12.23;;;3.45;;
16199;SDS011;8207;52.494;4.654;2023-07-13T11:16:26;6.05;;;3.03;;
16199;SDS011;8207;52.494;4.654;2023-07-13T11:19:24;6.55;;;2.47;;
16199;SDS011;8207;52.494;4.654;2023-07-13T11:22:12;6.55;;;2.75;;
16199;SDS011;8207;52.494;4.654;2023-07-13T11:24:50;13.38;;;2.20;;
16199;SDS011;8207;52.494;4.654;2023-07-13T11:27:35;7.20;;;2.25;;
16199;SDS011;8207;52.494;4.654;2023-07-13T11:30:21;3.58;;;1.60;;
16199;SDS011;8207;52.494;4.654;2023-07-13T11:35:45;6.95;;;2.78;;
16199;SDS011;8207;52.494;4.654;2023-07-13T11:38:31;7.05;;;2.80;;
16199;SDS011;8207;52.494;4.654;2023-07-13T11:41:02;5.72;;;2.22;;
16199;SDS011;8207;52.494;4.654;2023-07-13T11:43:32;5.35;;;2.30;;
16199;SDS011;8207;52.494;4.654;2023-07-13T11:46:11;5.97;;;2.42;;
16199;SDS011;8207;52.494;4.654;2023-07-13T11:48:40;5.65;;;3.22;;
16199;SDS011;8207;52.494;4.654;2023-07-13T11:51:16;6.18;;;2.45;;
16199;SDS011;8207;52.494;4.654;2023-07-13T11:53:49;5.78;;;2.42;;
16199;SDS011;8207;52.494;4.654;2023-07-13T11:56:18;5.45;;;2.30;;
16199;SDS011;8207;52.494;4.654;2023-07-13T11:58:48;7.00;;;2.40;;
16199;SDS011;8207;52.494;4.654;2023-07-13T12:01:18;5.72;;;2.10;;
16199;SDS011;8207;52.494;4.654;2023-07-13T12:03:48;5.40;;;2.15;;
16199;SDS011;8207;52.494;4.654;2023-07-13T12:06:25;6.47;;;2.63;;
16199;SDS011;8207;52.494;4.654;2023-07-13T12:08:57;6.95;;;2.50;;
16199;SDS011;8207;52.494;4.654;2023-07-13T12:11:25;5.03;;;2.40;;
16199;SDS011;8207;52.494;4.654;2023-07-13T12:13:53;7.38;;;2.47;;
16199;SDS011;8207;52.494;4.654;2023-07-13T12:16:23;5.40;;;2.40;;
16199;SDS011;8207;52.494;4.654;2023-07-13T12:18:53;6.45;;;2.47;;
16199;SDS011;8207;52.494;4.654;2023-07-13T12:21:22;10.35;;;2.85;;
16199;SDS011;8207;52.494;4.654;2023-07-13T12:23:54;7.43;;;2.80;;
16199;SDS011;8207;52.494;4.654;2023-07-13T12:26:22;6.53;;;2.60;;
16199;SDS011;8207;52.494;4.654;2023-07-13T12:28:51;8.80;;;2.67;;
16199;SDS011;8207;52.494;4.654;2023-07-13T12:31:26;5.05;;;2.80;;
16199;SDS011;8207;52.494;4.654;2023-07-13T12:33:58;9.73;;;2.72;;
16199;SDS011;8207;52.494;4.654;2023-07-13T12:36:28;11.32;;;3.22;;
16199;SDS011;8207;52.494;4.654;2023-07-13T12:38:59;7.00;;;2.90;;
16199;SDS011;8207;52.494;4.654;2023-07-13T12:41:31;5.47;;;2.90;;
16199;SDS011;8207;52.494;4.654;2023-07-13T12:43:59;6.90;;;2.60;;
16199;SDS011;8207;52.494;4.654;2023-07-13T12:46:27;6.25;;;2.25;;
16199;SDS011;8207;52.494;4.654;2023-07-13T12:48:56;7.60;;;2.80;;
16199;SDS011;8207;52.494;4.654;2023-07-13T12:51:25;6.32;;;2.80;;
16199;SDS011;8207;52.494;4.654;2023-07-13T12:53:55;5.97;;;2.80;;
16199;SDS011;8207;52.494;4.654;2023-07-13T12:56:25;6.97;;;2.80;;
16199;SDS011;8207;52.494;4.654;2023-07-13T12:58:58;5.60;;;2.60;;
16199;SDS011;8207;52.494;4.654;2023-07-13T13:01:29;11.70;;;2.63;;
16199;SDS011;8207;52.494;4.654;2023-07-13T13:04:02;9.35;;;3.05;;
16199;SDS011;8207;52.494;4.654;2023-07-13T13:06:32;7.63;;;2.35;;
16199;SDS011;8207;52.494;4.654;2023-07-13T13:09:01;5.57;;;2.63;;
16199;SDS011;8207;52.494;4.654;2023-07-13T13:11:29;7.25;;;2.65;;
16199;SDS011;8207;52.494;4.654;2023-07-13T13:13:59;5.70;;;2.50;;
16199;SDS011;8207;52.494;4.654;2023-07-13T13:16:29;6.25;;;2.67;;
16199;SDS011;8207;52.494;4.654;2023-07-13T13:18:59;6.25;;;2.50;;
16199;SDS011;8207;52.494;4.654;2023-07-13T13:21:30;7.75;;;2.88;;
16199;SDS011;8207;52.494;4.654;2023-07-13T13:23:57;5.93;;;2.45;;
16199;SDS011;8207;52.494;4.654;2023-07-13T13:26:24;6.30;;;3.05;;
16199;SDS011;8207;52.494;4.654;2023-07-13T13:28:51;6.53;;;2.97;;
16199;SDS011;8207;52.494;4.654;2023-07-13T13:31:20;5.25;;;2.60;;
16199;SDS011;8207;52.494;4.654;2023-07-13T13:33:47;6.18;;;2.85;;
16199;SDS011;8207;52.494;4.654;2023-07-13T13:36:15;7.15;;;2.83;;
16199;SDS011;8207;52.494;4.654;2023-07-13T13:38:44;5.82;;;2.75;;
16199;SDS011;8207;52.494;4.654;2023-07-13T13:41:12;8.82;;;2.95;;
16199;SDS011;8207;52.494;4.654;2023-07-13T13:43:40;5.28;;;2.75;;
16199;SDS011;8207;52.494;4.654;2023-07-13T13:46:13;9.70;;;3.08;;
16199;SDS011;8207;52.494;4.654;2023-07-13T13:48:43;5.95;;;3.20;;
16199;SDS011;8207;52.494;4.654;2023-07-13T13:51:15;8.50;;;4.13;;
16199;SDS011;8207;52.494;4.654;2023-07-13T13:53:44;6.45;;;2.63;;
16199;SDS011;8207;52.494;4.654;2023-07-13T13:56:11;7.88;;;3.10;;
16199;SDS011;8207;52.494;4.654;2023-07-13T13:58:39;5.63;;;2.90;;
16199;SDS011;8207;52.494;4.654;2023-07-13T14:01:10;6.93;;;2.88;;
16199;SDS011;8207;52.494;4.654;2023-07-13T14:03:39;6.30;;;3.05;;
16199;SDS011;8207;52.494;4.654;2023-07-13T14:06:09;6.13;;;3.10;;
16199;SDS011;8207;52.494;4.654;2023-07-13T14:08:38;5.22;;;2.15;;
16199;SDS011;8207;52.494;4.654;2023-07-13T14:11:05;6.18;;;2.85;;
16199;SDS011;8207;52.494;4.654;2023-07-13T14:13:36;6.35;;;2.35;;
16199;SDS011;8207;52.494;4.654;2023-07-13T14:16:09;7.22;;;2.65;;
16199;SDS011;8207;52.494;4.654;2023-07-13T14:18:38;6.43;;;2.67;;
16199;SDS011;8207;52.494;4.654;2023-07-13T14:21:10;6.22;;;2.30;;
16199;SDS011;8207;52.494;4.654;2023-07-13T14:23:39;6.45;;;2.97;;
16199;SDS011;8207;52.494;4.654;2023-07-13T14:26:09;5.38;;;2.20;;
16199;SDS011;8207;52.494;4.654;2023-07-13T14:28:39;5.55;;;2.33;;
16199;SDS011;8207;52.494;4.654;2023-07-13T14:31:09;4.28;;;2.30;;
16199;SDS011;8207;52.494;4.654;2023-07-13T14:33:36;5.35;;;1.95;;
16199;SDS011;8207;52.494;4.654;2023-07-13T14:36:05;8.45;;;3.30;;
16199;SDS011;8207;52.494;4.654;2023-07-13T14:38:47;8.98;;;4.25;;
16199;SDS011;8207;52.494;4.654;2023-07-13T14:41:15;9.38;;;3.40;;
16199;SDS011;8207;52.494;4.654;2023-07-13T14:43:42;5.32;;;2.35;;
16199;SDS011;8207;52.494;4.654;2023-07-13T14:46:11;6.15;;;2.63;;
16199;SDS011;8207;52.494;4.654;2023-07-13T14:48:49;6.90;;;2.60;;
16199;SDS011;8207;52.494;4.654;2023-07-13T14:51:18;5.32;;;2.50;;
16199;SDS011;8207;52.494;4.654;2023-07-13T14:53:45;5.57;;;2.58;;
16199;SDS011;8207;52.494;4.654;2023-07-13T14:56:12;8.75;;;3.60;;
16199;SDS011;8207;52.494;4.654;2023-07-13T14:58:40;9.65;;;2.65;;
16199;SDS011;8207;52.494;4.654;2023-07-13T15:01:09;6.68;;;2.47;;
16199;SDS011;8207;52.494;4.654;2023-07-13T15:03:39;5.10;;;2.53;;
16199;SDS011;8207;52.494;4.654;2023-07-13T15:06:09;7.50;;;3.28;;
16199;SDS011;8207;52.494;4.654;2023-07-13T15:08:38;6.78;;;2.60;;
16199;SDS011;8207;52.494;4.654;2023-07-13T15:11:06;7.05;;;3.17;;
16199;SDS011;8207;52.494;4.654;2023-07-13T15:13:33;5.35;;;2.63;;
16199;SDS011;8207;52.494;4.654;2023-07-13T15:16:01;8.38;;;3.10;;
16199;SDS011;8207;52.494;4.654;2023-07-13T15:18:28;5.45;;;2.75;;
16199;SDS011;8207;52.494;4.654;2023-07-13T15:20:55;5.20;;;2.88;;
16199;SDS011;8207;52.494;4.654;2023-07-13T15:23:25;5.35;;;2.53;;